Time;durP1;ratioP1;P1;durP2;ratioP2;P2;SDS_P1;SDS_P2;PMS_P1;PMS_P2;Temp;Humidity;BMP_temperature;BMP_pressure;BME280_temperature;BME280_humidity;BME280_pressure;Samples;Min_cycle;Max_cycle;Signal;HPM_P1;HPM_P2
2021/12/28 00:01:04;;;;;;;56.20;23.60;;;;;;;-1.33;100.00;99336.56;6157926;23;20096;-77
2021/12/28 00:03:29;;;;;;;58.83;21.90;;;;;;;-1.37;100.00;99326.81;6182623;23;20013;-78
2021/12/28 00:05:55;;;;;;;57.67;23.15;;;;;;;-1.41;100.00;99324.03;6156893;23;20021;-78
2021/12/28 00:08:21;;;;;;;61.83;22.95;;;;;;;-1.34;100.00;99337.75;6157060;23;20041;-78
2021/12/28 00:10:47;;;;;;;56.45;22.95;;;;;;;-1.34;100.00;99335.03;6183189;23;20012;-78
2021/12/28 00:13:14;;;;;;;62.33;23.48;;;;;;;-1.32;100.00;99327.25;6156652;23;20017;-78
2021/12/28 00:16:29;;;;;;;57.38;22.88;;;;;;;-1.42;100.00;99306.19;6156740;23;20008;-78
2021/12/28 00:18:28;;;;;;;62.05;25.33;;;;;;;-1.35;100.00;99336.16;6174155;23;20095;-78
2021/12/28 00:20:56;;;;;;;66.20;24.60;;;;;;;-1.39;100.00;99324.47;6156715;23;20041;-77
2021/12/28 00:23:27;;;;;;;62.83;25.88;;;;;;;-1.32;100.00;99338.13;6156579;23;20443;-78
2021/12/28 00:25:53;;;;;;;66.88;26.20;;;;;;;-1.28;100.00;99338.16;6157069;23;20059;-78
2021/12/28 00:28:20;;;;;;;68.47;25.48;;;;;;;-1.39;100.00;99312.81;6183645;23;20394;-78
2021/12/28 00:30:47;;;;;;;72.50;26.75;;;;;;;-1.28;100.00;99338.94;6131810;23;20013;-78
2021/12/28 00:33:13;;;;;;;63.05;24.80;;;;;;;-1.27;100.00;99328.84;6182786;23;20012;-78
2021/12/28 00:35:40;;;;;;;64.32;24.88;;;;;;;-1.27;100.00;99332.34;6183020;23;20009;-78
2021/12/28 00:38:08;;;;;;;62.17;24.08;;;;;;;-1.26;100.00;99331.22;6183099;23;20009;-78
2021/12/28 00:40:34;;;;;;;60.83;21.80;;;;;;;-1.33;100.00;99325.69;6183037;23;20018;-78
2021/12/28 00:42:59;;;;;;;60.70;23.33;;;;;;;-1.31;100.00;99326.09;6156397;23;20013;-78
2021/12/28 00:45:25;;;;;;;56.50;22.23;;;;;;;-1.30;100.00;99324.16;6156980;23;20013;-78
2021/12/28 00:47:51;;;;;;;72.50;22.00;;;;;;;-1.32;100.00;99310.94;6156488;23;20059;-77
2021/12/28 00:50:17;;;;;;;87.53;24.55;;;;;;;-1.30;100.00;99327.66;6132481;23;20016;-78
2021/12/28 00:52:44;;;;;;;77.18;23.00;;;;;;;-1.31;100.00;99314.44;6156440;23;20407;-78
2021/12/28 00:55:12;;;;;;;71.80;24.33;;;;;;;-1.41;100.00;99307.72;6181705;23;20009;-78
2021/12/28 00:57:37;;;;;;;67.25;22.08;;;;;;;-1.29;100.00;99321.06;6156532;23;20028;-78
2021/12/28 01:00:06;;;;;;;65.95;20.83;;;;;;;-1.37;100.00;99308.53;6156835;23;20428;-78
2021/12/28 01:02:32;;;;;;;74.82;23.08;;;;;;;-1.41;100.00;99302.28;6182413;23;20036;-78
2021/12/28 01:04:57;;;;;;;59.20;21.73;;;;;;;-1.34;100.00;99335.03;6182706;23;20036;-78
2021/12/28 01:07:23;;;;;;;61.75;22.15;;;;;;;-1.29;100.00;99340.09;6182947;23;20044;-78
2021/12/28 01:09:48;;;;;;;68.05;21.75;;;;;;;-1.29;100.00;99331.19;6156748;23;20096;-78
2021/12/28 01:12:15;;;;;;;56.55;21.05;;;;;;;-1.25;100.00;99338.19;6182382;23;20451;-77
2021/12/28 01:14:40;;;;;;;64.03;20.75;;;;;;;-1.23;100.00;99335.88;6156690;23;20452;-78
2021/12/28 01:17:06;;;;;;;67.53;20.77;;;;;;;-1.26;100.00;99333.94;6182494;23;20043;-78
2021/12/28 01:19:31;;;;;;;77.97;21.70;;;;;;;-1.29;100.00;99325.75;6182375;23;20020;-78
2021/12/28 01:21:57;;;;;;;70.93;22.20;;;;;;;-1.37;100.00;99327.59;6182459;23;20408;-77
2021/12/28 01:24:24;;;;;;;57.67;21.23;;;;;;;-1.32;100.00;99331.91;6156871;23;20301;-78
2021/12/28 01:26:49;;;;;;;73.68;22.73;;;;;;;-1.32;100.00;99332.69;6182863;23;20048;-78
2021/12/28 01:29:15;;;;;;;70.65;22.08;;;;;;;-1.33;100.00;99333.84;6132096;23;20437;-78
2021/12/28 01:31:41;;;;;;;81.15;23.80;;;;;;;-1.40;100.00;99320.19;6156347;23;20020;-78
2021/12/28 01:34:07;;;;;;;65.72;21.73;;;;;;;-1.31;100.00;99341.63;6182506;23;20064;-78
2021/12/28 01:36:36;;;;;;;63.75;22.88;;;;;;;-1.29;100.00;99336.63;6182345;23;20013;-78
2021/12/28 01:39:04;;;;;;;63.22;21.83;;;;;;;-1.35;100.00;99328.00;6131573;23;20013;-78
2021/12/28 01:41:30;;;;;;;60.58;21.50;;;;;;;-1.27;100.00;99326.91;6180634;23;20013;-77
2021/12/28 01:43:57;;;;;;;54.13;20.35;;;;;;;-1.30;100.00;99329.59;6156588;23;20443;-78
2021/12/28 01:46:22;;;;;;;53.00;20.95;;;;;;;-1.32;100.00;99321.81;6156152;23;20009;-78
2021/12/28 01:48:48;;;;;;;53.08;21.45;;;;;;;-1.34;100.00;99313.25;6155568;23;20020;-78
2021/12/28 01:51:19;;;;;;;50.42;20.02;;;;;;;-1.31;100.00;99323.38;6182689;23;20001;-78
2021/12/28 01:53:50;;;;;;;52.67;19.80;;;;;;;-1.36;100.00;99321.00;6157574;23;20059;-78
2021/12/28 01:56:22;;;;;;;50.40;18.48;;;;;;;-1.36;100.00;99329.16;6184142;23;20032;-77
2021/12/28 01:58:49;;;;;;;53.50;20.25;;;;;;;-1.35;100.00;99317.13;6157644;23;20333;-77
2021/12/28 02:03:56;;;;;;;53.20;20.83;;;;;;;-1.32;100.00;99319.09;6113733;23;20033;-81
2021/12/28 02:06:25;;;;;;;53.97;20.50;;;;;;;-1.30;100.00;99319.50;6099264;23;20014;-81
2021/12/28 02:08:51;;;;;;;49.80;20.33;;;;;;;-1.38;100.00;99312.44;6124515;23;20450;-81
2021/12/28 02:11:17;;;;;;;47.58;19.80;;;;;;;-1.28;100.00;99316.41;6124573;23;20388;-81
2021/12/28 02:13:42;;;;;;;52.25;21.70;;;;;;;-1.25;100.00;99321.88;6124574;23;20010;-81
2021/12/28 02:16:08;;;;;;;46.15;18.92;;;;;;;-1.24;100.00;99326.16;6099106;23;20415;-81
2021/12/28 02:18:34;;;;;;;48.45;18.42;;;;;;;-1.31;100.00;99325.31;6124720;23;20098;-81
2021/12/28 02:21:02;;;;;;;44.67;17.88;;;;;;;-1.30;100.00;99319.50;6124045;23;20014;-81
2021/12/28 02:23:28;;;;;;;52.67;19.33;;;;;;;-1.23;100.00;99319.56;6098436;23;20544;-79
2021/12/28 02:25:54;;;;;;;44.75;18.65;;;;;;;-1.23;100.00;99307.91;6123914;23;20096;-79
2021/12/28 02:28:20;;;;;;;41.65;17.65;;;;;;;-1.23;100.00;99319.56;6098385;23;20010;-80
2021/12/28 02:30:49;;;;;;;53.45;19.83;;;;;;;-1.25;100.00;99310.97;6123015;23;20010;-80
2021/12/28 02:33:17;;;;;;;48.97;18.65;;;;;;;-1.29;100.00;99315.59;6123857;23;20090;-79
2021/12/28 02:35:43;;;;;;;54.80;18.15;;;;;;;-1.32;100.00;99310.13;6124576;23;20460;-80
2021/12/28 02:38:10;;;;;;;47.72;17.83;;;;;;;-1.31;100.00;99317.94;6097811;23;20010;-81
2021/12/28 02:40:36;;;;;;;65.88;18.50;;;;;;;-1.36;100.00;99307.38;6124156;23;20095;-81
2021/12/28 02:43:03;;;;;;;57.97;17.70;;;;;;;-1.40;100.00;99309.28;6124476;23;20044;-80
2021/12/28 02:45:33;;;;;;;71.13;19.77;;;;;;;-1.37;100.00;99307.78;6123880;23;20029;-80
2021/12/28 02:47:58;;;;;;;67.97;20.52;;;;;;;-1.34;100.00;99307.03;6124088;23;20014;-80
2021/12/28 02:50:28;;;;;;;51.40;18.92;;;;;;;-1.34;100.00;99302.38;6124264;23;20014;-79
2021/12/28 02:52:54;;;;;;;69.82;20.20;;;;;;;-1.34;100.00;99315.97;6098399;23;20037;-80
2021/12/28 02:55:23;;;;;;;108.78;17.70;;;;;;;-1.42;100.00;99311.63;6098058;23;20444;-80
2021/12/28 02:57:55;;;;;;;90.55;20.38;;;;;;;-1.71;100.00;99288.00;6124074;23;20013;-80
2021/12/28 03:00:37;;;;;;;87.88;19.70;;;;;;;-1.53;100.00;99316.16;6124407;23;20391;-80
2021/12/28 03:03:21;;;;;;;78.00;19.23;;;;;;;-1.55;100.00;99297.50;6097412;23;20157;-79
2021/12/28 03:05:47;;;;;;;;;;;;;;;-1.54;100.00;99315.41;6098339;23;20014;-80
2021/12/28 03:08:15;;;;;;;50.00;17.77;;;;;;;-1.48;100.00;99311.16;6123858;23;19917;-80
2021/12/28 03:10:42;;;;;;;53.53;15.55;;;;;;;-1.52;100.00;99312.28;6096755;23;20104;-80
2021/12/28 03:13:12;;;;;;;58.28;18.48;;;;;;;-1.57;100.00;99304.47;6123694;23;20397;-79
2021/12/28 03:15:38;;;;;;;55.92;18.02;;;;;;;-1.57;100.00;99299.03;6074889;23;20014;-79
2021/12/28 03:18:03;;;;;;;56.13;17.88;;;;;;;-1.58;100.00;99300.19;6123869;23;20519;-81
2021/12/28 03:20:29;;;;;;;66.35;18.38;;;;;;;-1.63;100.00;99286.94;6123684;23;20116;-82
2021/12/28 03:22:54;;;;;;;59.92;19.10;;;;;;;-1.58;100.00;99289.31;6098355;23;20009;-81
2021/12/28 03:25:20;;;;;;;70.72;19.60;;;;;;;-1.57;100.00;99278.06;6124065;23;20061;-81
2021/12/28 03:27:46;;;;;;;60.75;20.02;;;;;;;-1.58;100.00;99281.16;6123149;23;20740;-81
2021/12/28 03:30:14;;;;;;;59.03;20.65;;;;;;;-1.60;100.00;99278.03;6123442;23;20002;-81
2021/12/28 03:32:40;;;;;;;50.58;19.45;;;;;;;-1.64;100.00;99278.00;6124488;23;20026;-81
2021/12/28 03:35:08;;;;;;;51.17;18.90;;;;;;;-1.60;100.00;99273.38;6097811;23;20361;-81
2021/12/28 03:37:34;;;;;;;52.30;19.90;;;;;;;-1.54;100.00;99277.31;6123725;23;20018;-81
2021/12/28 03:40:01;;;;;;;50.67;19.75;;;;;;;-1.56;100.00;99267.97;6123969;23;20013;-80
2021/12/28 03:42:26;;;;;;;49.45;19.27;;;;;;;-1.54;100.00;99273.81;6098041;23;20053;-79
2021/12/28 03:44:52;;;;;;;48.08;19.35;;;;;;;-1.51;100.00;99270.34;6123840;23;20033;-80
2021/12/28 03:47:18;;;;;;;48.60;18.70;;;;;;;-1.47;100.00;99276.59;6097999;23;20010;-80
2021/12/28 03:49:44;;;;;;;50.50;19.40;;;;;;;-1.51;100.00;99281.22;6123507;23;20340;-79
2021/12/28 03:52:09;;;;;;;48.42;18.70;;;;;;;-1.52;100.00;99282.38;6123436;23;20096;-80
2021/12/28 03:54:35;;;;;;;43.65;18.27;;;;;;;-1.54;100.00;99273.81;6123790;23;20458;-80
2021/12/28 03:57:02;;;;;;;46.08;18.33;;;;;;;-1.53;100.00;99278.06;6098349;23;20085;-80
2021/12/28 03:59:28;;;;;;;40.60;16.35;;;;;;;-1.61;100.00;99273.72;6123410;23;20064;-80
2021/12/28 04:01:53;;;;;;;41.90;16.63;;;;;;;-1.64;100.00;99271.75;6123482;23;20089;-80
2021/12/28 04:04:19;;;;;;;39.55;15.35;;;;;;;-1.59;100.00;99279.59;6097297;23;20022;-80
2021/12/28 04:06:45;;;;;;;42.90;17.70;;;;;;;-1.61;100.00;99274.50;6098282;23;20073;-80
2021/12/28 04:09:12;;;;;;;41.03;16.52;;;;;;;-1.61;100.00;99287.31;6122953;23;20018;-80
2021/12/28 04:11:39;;;;;;;42.50;17.67;;;;;;;-1.60;100.00;99275.31;6123968;23;20013;-80
2021/12/28 04:14:07;;;;;;;38.70;16.20;;;;;;;-1.56;100.00;99287.00;6123914;23;20389;-80
2021/12/28 04:16:34;;;;;;;36.42;15.70;;;;;;;-1.60;100.00;99289.69;6097633;23;20014;-80
2021/12/28 04:19:01;;;;;;;41.25;17.50;;;;;;;-1.58;100.00;99286.59;6123748;23;20056;-82
2021/12/28 04:21:27;;;;;;;36.67;16.08;;;;;;;-1.57;100.00;99278.06;6123293;23;20439;-81
2021/12/28 04:23:53;;;;;;;36.30;15.95;;;;;;;-1.60;100.00;99283.47;6097798;23;20044;-82
2021/12/28 04:26:20;;;;;;;35.92;15.50;;;;;;;-1.63;100.00;99273.34;6097982;23;20064;-81
2021/12/28 04:28:45;;;;;;;35.20;15.70;;;;;;;-1.59;100.00;99269.50;6123462;23;20018;-81
2021/12/28 04:31:12;;;;;;;37.67;16.55;;;;;;;-1.59;100.00;99269.50;6123635;23;20013;-82
2021/12/28 04:33:38;;;;;;;35.92;16.42;;;;;;;-1.60;100.00;99267.13;6098172;23;20021;-80
2021/12/28 04:36:15;;;;;;;33.15;15.07;;;;;;;-1.55;100.00;99281.19;6123639;23;20025;-82
2021/12/28 04:38:42;;;;;;;37.58;15.90;;;;;;;-1.61;100.00;99271.00;6097489;23;20068;-81
2021/12/28 04:41:09;;;;;;;34.15;14.85;;;;;;;-1.58;100.00;99283.88;6097597;23;20105;-82
2021/12/28 04:43:34;;;;;;;34.60;15.98;;;;;;;-1.57;100.00;99282.69;6123042;23;20006;-81
2021/12/28 04:46:00;;;;;;;34.03;15.68;;;;;;;-1.60;100.00;99269.88;6123620;23;20041;-81
2021/12/28 04:48:26;;;;;;;36.67;16.02;;;;;;;-1.57;100.00;99266.38;6097435;23;20456;-81
2021/12/28 04:50:51;;;;;;;37.83;15.90;;;;;;;-1.58;100.00;99275.72;6097682;23;20428;-81
2021/12/28 04:53:17;;;;;;;34.92;16.13;;;;;;;-1.57;100.00;99277.25;6097326;23;20444;-81
2021/12/28 04:55:45;;;;;;;38.13;16.60;;;;;;;-1.58;100.00;99273.00;6123202;23;20061;-80
2021/12/28 04:58:11;;;;;;;33.17;15.30;;;;;;;-1.53;100.00;99275.38;6123286;23;20061;-80
2021/12/28 05:00:38;;;;;;;33.95;15.27;;;;;;;-1.55;100.00;99275.75;6123069;23;20081;-80
2021/12/28 05:03:04;;;;;;;35.10;15.07;;;;;;;-1.55;100.00;99281.19;6123208;23;20388;-80
2021/12/28 05:05:30;;;;;;;32.22;15.13;;;;;;;-1.54;100.00;99281.97;6097086;23;20014;-80
2021/12/28 05:07:56;;;;;;;34.70;15.48;;;;;;;-1.58;100.00;99287.38;6097288;23;20017;-80
2021/12/28 05:10:22;;;;;;;35.20;15.95;;;;;;;-1.54;100.00;99298.28;6123385;23;20014;-80
2021/12/28 05:12:49;;;;;;;34.67;14.18;;;;;;;-1.54;100.00;99292.84;6123037;23;20133;-81
2021/12/28 05:15:18;;;;;;;31.75;14.63;;;;;;;-1.52;100.00;99306.84;6123047;23;20022;-82
2021/12/28 05:17:44;;;;;;;33.45;14.60;;;;;;;-1.56;100.00;99295.16;6122715;23;20014;-82
2021/12/28 05:20:10;;;;;;;33.85;14.88;;;;;;;-1.48;100.00;99318.53;6123025;23;20017;-82
2021/12/28 05:22:36;;;;;;;27.95;12.90;;;;;;;-1.50;100.00;99312.72;6123192;23;20010;-81
2021/12/28 05:25:02;;;;;;;31.00;14.43;;;;;;;-1.50;100.00;99320.88;6123218;23;20006;-81
2021/12/28 05:27:27;;;;;;;31.10;13.60;;;;;;;-1.47;100.00;99320.13;6096706;23;20460;-81
2021/12/28 05:29:53;;;;;;;32.42;15.40;;;;;;;-1.49;100.00;99323.19;6125028;23;20021;-81
2021/12/28 05:32:19;;;;;;;28.67;12.73;;;;;;;-1.52;100.00;99331.31;6099354;23;20071;-81
2021/12/28 05:34:44;;;;;;;31.80;14.30;;;;;;;-1.50;100.00;99326.31;6124482;23;20110;-80
2021/12/28 05:37:10;;;;;;;31.52;16.00;;;;;;;-1.49;100.00;99327.84;6125084;23;20491;-79
2021/12/28 05:39:36;;;;;;;33.17;14.32;;;;;;;-1.50;100.00;99320.88;6098945;23;20041;-80
2021/12/28 05:42:02;;;;;;;33.55;15.15;;;;;;;-1.48;100.00;99326.69;6098434;23;20017;-80
2021/12/28 05:44:28;;;;;;;32.95;14.52;;;;;;;-1.48;100.00;99318.53;6098983;23;20445;-80
2021/12/28 05:46:54;;;;;;;33.13;14.27;;;;;;;-1.43;100.00;99337.25;6125097;23;20093;-80
2021/12/28 05:49:21;;;;;;;32.55;14.52;;;;;;;-1.46;100.00;99343.44;6124861;23;20056;-80
2021/12/28 05:51:46;;;;;;;39.53;18.00;;;;;;;-1.51;100.00;99338.34;6124377;23;20014;-80
2021/12/28 05:54:12;;;;;;;35.28;16.60;;;;;;;-1.51;100.00;99350.00;6098772;23;20054;-80
2021/12/28 05:56:38;;;;;;;35.33;15.10;;;;;;;-1.53;100.00;99348.78;6098849;23;20396;-80
2021/12/28 05:59:04;;;;;;;30.83;13.63;;;;;;;-1.52;100.00;99350.38;6098128;23;20438;-80
2021/12/28 06:01:30;;;;;;;35.95;15.95;;;;;;;-1.53;100.00;99337.91;6122980;23;20024;-80
2021/12/28 06:03:55;;;;;;;38.65;16.38;;;;;;;-1.50;100.00;99343.41;6122373;23;20531;-80
2021/12/28 06:06:21;;;;;;;36.75;14.55;;;;;;;-1.50;100.00;99348.84;6122848;23;20049;-79
2021/12/28 06:08:46;;;;;;;41.80;16.70;;;;;;;-1.50;100.00;99339.91;6122517;23;20017;-80
2021/12/28 06:11:13;;;;;;;36.75;14.48;;;;;;;-1.55;100.00;99334.81;6122762;23;20093;-81
2021/12/28 06:13:41;;;;;;;36.75;15.85;;;;;;;-1.46;100.00;99343.44;6122339;23;20518;-81
2021/12/28 06:16:09;;;;;;;38.53;15.38;;;;;;;-1.48;100.00;99351.19;6123580;23;20021;-81
2021/12/28 06:18:34;;;;;;;37.67;15.50;;;;;;;-1.50;100.00;99337.19;6097107;23;20029;-81
2021/12/28 06:21:00;;;;;;;42.08;15.40;;;;;;;-1.48;100.00;99349.25;6097647;23;20010;-82
2021/12/28 06:23:25;;;;;;;41.05;15.82;;;;;;;-1.47;100.00;99348.09;6097193;23;20006;-81
2021/12/28 06:25:51;;;;;;;41.75;16.80;;;;;;;-1.56;100.00;99328.56;6122826;23;20064;-82
2021/12/28 06:28:16;;;;;;;44.88;16.88;;;;;;;-1.52;100.00;99336.75;6123163;23;20444;-81
2021/12/28 06:30:42;;;;;;;45.63;16.45;;;;;;;-1.53;100.00;99343.34;6097957;23;20025;-80
2021/12/28 06:33:07;;;;;;;46.38;15.98;;;;;;;-1.54;100.00;99348.03;6124682;23;20016;-80
2021/12/28 06:35:33;;;;;;;42.78;17.48;;;;;;;-1.52;100.00;99350.38;6124711;23;20016;-79
2021/12/28 06:37:59;;;;;;;46.20;16.75;;;;;;;-1.50;100.00;99348.06;6098309;23;20018;-79
2021/12/28 06:40:25;;;;;;;45.97;15.75;;;;;;;-1.61;100.00;99347.94;6123562;23;20017;-79
2021/12/28 06:42:50;;;;;;;47.45;16.52;;;;;;;-1.53;100.00;99354.22;6124783;23;20009;-80
2021/12/28 06:45:16;;;;;;;45.42;16.65;;;;;;;-1.56;100.00;99352.25;6124681;23;20062;-80
2021/12/28 06:47:42;;;;;;;47.22;17.95;;;;;;;-1.53;100.00;99354.22;6124301;23;20065;-80
2021/12/28 06:50:08;;;;;;;46.95;17.27;;;;;;;-1.55;100.00;99345.69;6124089;23;20017;-81
2021/12/28 06:52:33;;;;;;;46.15;17.52;;;;;;;-1.52;100.00;99356.59;6098249;23;20014;-81
2021/12/28 06:54:59;;;;;;;48.63;16.73;;;;;;;-1.47;100.00;99358.19;6123775;23;20077;-81
2021/12/28 06:57:25;;;;;;;49.47;17.58;;;;;;;-1.45;100.00;99355.88;6124682;23;20046;-82
2021/12/28 06:59:50;;;;;;;46.55;17.35;;;;;;;-1.46;100.00;99355.13;6124849;23;20013;-81
2021/12/28 07:02:17;;;;;;;49.83;19.83;;;;;;;-1.40;100.00;99358.25;6098597;23;20017;-81
2021/12/28 07:04:42;;;;;;;44.47;17.13;;;;;;;-1.40;100.00;99363.69;6123939;23;20373;-81
2021/12/28 07:07:08;;;;;;;46.75;18.45;;;;;;;-1.37;100.00;99362.19;6098528;23;20060;-81
2021/12/28 07:09:34;;;;;;;48.22;18.00;;;;;;;-1.33;100.00;99363.00;6098339;23;20073;-81
2021/12/28 07:12:00;;;;;;;49.13;19.38;;;;;;;-1.32;100.00;99365.34;6097600;23;20449;-81
2021/12/28 07:14:28;;;;;;;48.35;18.13;;;;;;;-1.34;100.00;99373.09;6122948;23;20344;-81
2021/12/28 07:16:55;;;;;;;49.03;18.58;;;;;;;-1.28;100.00;99371.59;6124496;23;20377;-81
2021/12/28 07:19:20;;;;;;;48.55;17.75;;;;;;;-1.29;100.00;99370.03;6098189;23;20014;-82
2021/12/28 07:21:46;;;;;;;44.10;18.63;;;;;;;-1.27;100.00;99373.16;6074338;23;20479;-82
2021/12/28 07:24:13;;;;;;;39.55;17.38;;;;;;;-1.39;100.00;99359.06;6124200;23;20021;-82
2021/12/28 07:26:39;;;;;;;43.97;17.20;;;;;;;-1.34;100.00;99373.09;6124308;23;20014;-80
2021/12/28 07:29:05;;;;;;;46.90;18.50;;;;;;;-1.39;100.00;99365.28;6124323;23;20340;-80
2021/12/28 07:31:31;;;;;;;45.95;18.33;;;;;;;-1.32;100.00;99370.78;6123695;23;20337;-79
2021/12/28 07:33:57;;;;;;;43.85;18.38;;;;;;;-1.34;100.00;99359.50;6124010;23;20435;-80
2021/12/28 07:36:22;;;;;;;42.78;17.33;;;;;;;-1.34;100.00;99350.56;6123951;23;20092;-80
2021/12/28 07:38:48;;;;;;;41.08;17.00;;;;;;;-1.25;100.00;99362.69;6098167;23;20144;-80
2021/12/28 07:41:14;;;;;;;42.08;16.90;;;;;;;-1.24;100.00;99358.81;6097213;23;20010;-80
2021/12/28 07:43:39;;;;;;;40.33;16.80;;;;;;;-1.22;100.00;99353.00;6122888;23;20018;-80
2021/12/28 07:46:05;;;;;;;38.10;16.23;;;;;;;-1.17;100.00;99350.69;6122697;23;20017;-81
2021/12/28 07:48:34;;;;;;;41.53;17.20;;;;;;;-1.15;100.00;99348.41;6122412;23;20396;-82
2021/12/28 07:51:00;;;;;;;40.47;16.65;;;;;;;-1.16;100.00;99346.03;6096610;23;20412;-81
2021/12/28 07:53:25;;;;;;;42.03;17.05;;;;;;;-1.16;100.00;99355.00;6122152;23;20020;-81
2021/12/28 07:55:51;;;;;;;41.38;17.70;;;;;;;-1.19;100.00;99344.88;6096918;23;20006;-82
2021/12/28 07:58:16;;;;;;;36.40;16.38;;;;;;;-1.15;100.00;99353.06;6122160;23;20023;-81
2021/12/28 08:00:42;;;;;;;38.03;15.73;;;;;;;-1.17;100.00;99353.44;6096609;23;20025;-81
2021/12/28 08:03:08;;;;;;;38.88;15.27;;;;;;;-1.21;100.00;99341.72;6122449;23;20072;-81
2021/12/28 08:05:35;;;;;;;40.17;16.65;;;;;;;-1.18;100.00;99342.94;6122368;23;20092;-81
2021/12/28 08:08:01;;;;;;;40.97;16.20;;;;;;;-1.13;100.00;99340.63;6096549;23;20014;-81
2021/12/28 08:10:27;;;;;;;38.58;15.63;;;;;;;-1.14;100.00;99343.75;6122840;23;20085;-81
2021/12/28 08:12:54;;;;;;;40.67;16.73;;;;;;;-1.15;100.00;99347.63;6123680;23;20029;-81
2021/12/28 08:15:22;;;;;;;42.65;16.15;;;;;;;-1.14;100.00;99351.91;6097313;23;20018;-81
2021/12/28 08:17:48;;;;;;;41.35;17.33;;;;;;;-1.18;100.00;99341.00;6123928;23;20010;-81
2021/12/28 08:20:15;;;;;;;39.60;14.05;;;;;;;-1.22;100.00;99342.91;6123484;23;20440;-81
2021/12/28 08:22:41;;;;;;;36.75;14.35;;;;;;;-1.19;100.00;99338.63;6123023;23;20006;-79
2021/12/28 08:25:11;;;;;;;47.20;17.52;;;;;;;-1.15;100.00;99339.47;6119556;23;20014;-80
2021/12/28 08:27:36;;;;;;;43.03;16.13;;;;;;;-1.11;100.00;99359.31;6092097;23;20025;-80
2021/12/28 08:30:04;;;;;;;41.80;17.05;;;;;;;-1.11;100.00;99360.09;6120785;23;20014;-80
2021/12/28 08:32:29;;;;;;;46.40;18.00;;;;;;;-1.11;100.00;99362.81;6120004;23;20024;-80
2021/12/28 08:34:55;;;;;;;46.25;17.83;;;;;;;-1.06;100.00;99367.16;6120641;23;20037;-79
2021/12/28 08:37:21;;;;;;;39.10;16.13;;;;;;;-1.06;100.00;99373.38;6117984;23;20002;-79
2021/12/28 08:39:46;;;;;;;41.17;17.10;;;;;;;-1.04;100.00;99376.50;6091929;23;20026;-80
2021/12/28 08:42:12;;;;;;;41.53;17.40;;;;;;;-0.99;100.00;99381.59;6119646;23;19994;-81
2021/12/28 08:44:37;;;;;;;44.05;17.10;;;;;;;-1.02;100.00;99385.09;6120082;23;20030;-81
2021/12/28 08:47:03;;;;;;;40.65;16.45;;;;;;;-1.02;100.00;99378.84;6094756;23;20014;-82
2021/12/28 08:49:29;;;;;;;41.25;18.15;;;;;;;-0.97;100.00;99387.44;6119707;23;20038;-81
2021/12/28 08:51:54;;;;;;;42.05;17.20;;;;;;;-0.98;100.00;99369.56;6094304;23;20028;-81
2021/12/28 08:54:20;;;;;;;48.20;18.95;;;;;;;-0.91;100.00;99384.38;6092304;23;20014;-81
2021/12/28 08:56:46;;;;;;;44.10;19.05;;;;;;;-0.91;100.00;99377.00;6119079;23;20014;-81
2021/12/28 08:59:13;;;;;;;38.25;16.75;;;;;;;-0.87;100.00;99385.97;6119284;23;20022;-81
2021/12/28 09:01:39;;;;;;;43.65;17.60;;;;;;;-0.85;100.00;99388.34;6119255;23;20010;-82
2021/12/28 09:04:04;;;;;;;41.92;16.58;;;;;;;-0.88;100.00;99391.78;6120922;23;20033;-81
2021/12/28 09:06:30;;;;;;;46.97;17.75;;;;;;;-0.88;100.00;99372.72;6122599;23;20021;-82
2021/12/28 09:08:56;;;;;;;43.30;18.45;;;;;;;-0.81;100.00;99380.97;6122883;23;20045;-82
2021/12/28 09:11:21;;;;;;;39.70;17.02;;;;;;;-0.81;100.00;99381.75;6124517;23;20010;-81
2021/12/28 09:13:47;;;;;;;45.45;17.88;;;;;;;-0.85;100.00;99394.56;6124464;23;20006;-82
2021/12/28 09:16:13;;;;;;;44.70;17.60;;;;;;;-0.80;100.00;99385.25;6123994;23;20021;-81
2021/12/28 09:18:39;;;;;;;44.92;17.40;;;;;;;-0.80;100.00;99386.03;6124914;23;20013;-82
2021/12/28 09:21:04;;;;;;;45.22;19.02;;;;;;;-0.83;100.00;99369.66;6123686;23;20014;-82
2021/12/28 09:23:30;;;;;;;40.63;17.50;;;;;;;-0.89;100.00;99376.63;6123425;23;20020;-82
2021/12/28 09:25:56;;;;;;;42.53;17.35;;;;;;;-0.92;100.00;99372.69;6098532;23;20017;-82
2021/12/28 09:28:22;;;;;;;43.28;18.23;;;;;;;-0.87;100.00;99379.75;6097826;23;20025;-81
2021/12/28 09:30:49;;;;;;;43.75;17.55;;;;;;;-0.85;100.00;99370.06;6122214;23;20018;-81
2021/12/28 09:33:14;;;;;;;45.28;17.48;;;;;;;-0.80;100.00;99379.78;6123674;23;20088;-82
2021/12/28 09:35:42;;;;;;;51.20;21.15;;;;;;;-0.77;100.00;99368.16;6124913;23;20492;-81
2021/12/28 09:38:08;;;;;;;48.72;20.45;;;;;;;-0.72;100.00;99365.06;6125283;23;20046;-81
2021/12/28 09:40:35;;;;;;;47.92;19.38;;;;;;;-0.66;100.00;99369.03;6123164;23;20025;-80
2021/12/28 09:43:07;;;;;;;48.20;21.17;;;;;;;-0.63;100.00;99368.25;6074711;23;20317;-80
2021/12/28 09:45:33;;;;;;;47.28;21.38;;;;;;;-0.59;100.00;99374.53;6074626;23;20010;-81
2021/12/28 09:47:58;;;;;;;44.30;17.70;;;;;;;-0.69;100.00;99367.84;6098784;23;20352;-81
2021/12/28 09:50:24;;;;;;;43.28;18.05;;;;;;;-0.78;100.00;99366.59;6123480;23;20002;-81
2021/12/28 09:52:50;;;;;;;42.47;18.17;;;;;;;-0.75;100.00;99363.91;6124587;23;20023;-81
2021/12/28 09:55:20;;;;;;;46.58;19.92;;;;;;;-0.73;100.00;99349.91;6124143;23;20014;-81
2021/12/28 09:57:46;;;;;;;43.42;19.38;;;;;;;-0.77;100.00;99346.38;6099046;23;20096;-81
2021/12/28 10:00:13;;;;;;;44.28;18.23;;;;;;;-0.77;100.00;99363.50;6124384;23;20045;-82
2021/12/28 10:02:38;;;;;;;44.88;18.50;;;;;;;-0.83;100.00;99332.34;6098488;23;20006;-81
2021/12/28 10:05:13;;;;;;;45.88;19.02;;;;;;;-0.78;100.00;99339.38;6124756;23;20013;-82
2021/12/28 10:07:50;;;;;;;46.33;18.98;;;;;;;-0.75;100.00;99338.59;6124483;23;20014;-82
2021/12/28 10:10:16;;;;;;;46.90;19.50;;;;;;;-0.70;100.00;99335.53;6124763;23;20010;-81
2021/12/28 10:12:45;;;;;;;41.03;19.52;;;;;;;-0.68;100.00;99327.75;6124340;23;20006;-81
2021/12/28 10:15:18;;;;;;;45.72;18.55;;;;;;;-0.70;100.00;99332.81;6098630;23;20029;-81
2021/12/28 10:17:45;;;;;;;43.90;18.10;;;;;;;-0.75;100.00;99333.16;6075046;23;20041;-79
2021/12/28 10:20:14;;;;;;;44.47;18.60;;;;;;;-0.79;100.00;99327.69;6125375;23;20306;-81
2021/12/28 10:22:46;;;;;;;47.25;19.35;;;;;;;-0.83;100.00;99321.44;6124573;23;20440;-81
2021/12/28 10:25:23;;;;;;;48.03;19.98;;;;;;;-0.80;100.00;99314.44;6124509;23;20009;-81
2021/12/28 10:27:52;;;;;;;48.05;19.90;;;;;;;-0.79;100.00;99321.47;6124382;23;20014;-81
2021/12/28 10:30:23;;;;;;;49.03;19.80;;;;;;;-0.77;100.00;99308.25;6098759;23;20010;-80
2021/12/28 10:32:51;;;;;;;52.90;21.77;;;;;;;-0.76;100.00;99307.09;6124558;23;20060;-81
2021/12/28 10:35:20;;;;;;;45.70;19.88;;;;;;;-0.75;100.00;99292.31;6124527;23;20013;-81
2021/12/28 10:37:51;;;;;;;54.05;21.42;;;;;;;-0.73;100.00;99298.97;6124223;23;20010;-81
2021/12/28 10:40:38;;;;;;;49.78;20.65;;;;;;;-0.71;100.00;99290.41;6124201;23;20014;-81
2021/12/28 10:43:04;;;;;;;55.17;20.92;;;;;;;-0.70;100.00;99291.97;6098752;23;20014;-81
2021/12/28 10:45:36;;;;;;;53.50;20.90;;;;;;;-0.66;100.00;99293.56;6123851;23;20032;-80
2021/12/28 10:48:28;;;;;;;55.80;20.83;;;;;;;-0.72;100.00;99294.28;6124382;23;20018;-81
2021/12/28 10:51:12;;;;;;;56.50;20.98;;;;;;;-0.72;100.00;99291.53;6117367;23;20444;-80
2021/12/28 10:56:28;;;;;;;48.90;19.50;;;;;;;-0.65;100.00;99283.44;6124517;23;20065;-80
2021/12/28 10:58:54;;;;;;;55.38;21.42;;;;;;;-0.68;100.00;99271.34;6073991;23;20081;-80
2021/12/28 11:01:22;;;;;;;56.85;22.40;;;;;;;-0.62;100.00;99275.28;6098697;23;20009;-80
2021/12/28 11:03:52;;;;;;;56.88;19.42;;;;;;;-0.68;100.00;99273.28;6098200;23;20021;-80
2021/12/28 11:06:21;;;;;;;52.35;19.00;;;;;;;-0.70;100.00;99276.41;6098556;23;20018;-80
2021/12/28 11:08:49;;;;;;;61.13;26.85;;;;;;;-0.69;100.00;99279.91;6124338;23;20037;-81
2021/12/28 11:11:18;;;;;;;55.17;20.95;;;;;;;-0.67;100.00;99263.97;6124555;23;20072;-81
2021/12/28 11:13:44;;;;;;;51.70;21.02;;;;;;;-0.74;100.00;99259.28;6124305;23;20085;-79